sensor_id;sensor_type;location;lat;lon;timestamp;P1;durP1;ratioP1;P2;durP2;ratioP2
22193;SDS011;11262;50.308;9.270;2022-09-30T00:01:30;19.00;;;9.83;;
22193;SDS011;11262;50.308;9.270;2022-09-30T00:03:56;17.07;;;8.87;;
22193;SDS011;11262;50.308;9.270;2022-09-30T00:06:24;20.93;;;9.63;;
22193;SDS011;11262;50.308;9.270;2022-09-30T00:08:51;17.17;;;9.37;;
22193;SDS011;11262;50.308;9.270;2022-09-30T00:11:21;18.93;;;9.33;;
22193;SDS011;11262;50.308;9.270;2022-09-30T00:13:49;18.07;;;9.27;;
22193;SDS011;11262;50.308;9.270;2022-09-30T00:16:16;21.13;;;10.07;;
22193;SDS011;11262;50.308;9.270;2022-09-30T00:18:43;19.13;;;10.17;;
22193;SDS011;11262;50.308;9.270;2022-09-30T00:21:10;15.33;;;8.93;;
22193;SDS011;11262;50.308;9.270;2022-09-30T00:23:36;17.40;;;9.37;;
22193;SDS011;11262;50.308;9.270;2022-09-30T00:26:04;17.53;;;9.50;;
22193;SDS011;11262;50.308;9.270;2022-09-30T00:28:33;20.87;;;10.30;;
22193;SDS011;11262;50.308;9.270;2022-09-30T00:30:59;28.23;;;10.83;;
22193;SDS011;11262;50.308;9.270;2022-09-30T00:33:26;19.20;;;9.77;;
22193;SDS011;11262;50.308;9.270;2022-09-30T00:35:52;18.83;;;10.00;;
22193;SDS011;11262;50.308;9.270;2022-09-30T00:38:17;19.90;;;10.37;;
22193;SDS011;11262;50.308;9.270;2022-09-30T00:40:43;22.93;;;10.90;;
22193;SDS011;11262;50.308;9.270;2022-09-30T00:43:16;25.00;;;11.30;;
22193;SDS011;11262;50.308;9.270;2022-09-30T00:46:02;22.00;;;10.97;;
22193;SDS011;11262;50.308;9.270;2022-09-30T00:48:30;23.60;;;10.67;;
22193;SDS011;11262;50.308;9.270;2022-09-30T00:51:01;121.43;;;13.10;;
22193;SDS011;11262;50.308;9.270;2022-09-30T00:53:33;60.73;;;11.53;;
22193;SDS011;11262;50.308;9.270;2022-09-30T00:56:09;96.13;;;12.73;;
22193;SDS011;11262;50.308;9.270;2022-09-30T00:58:45;25.33;;;12.17;;
22193;SDS011;11262;50.308;9.270;2022-09-30T01:01:19;36.80;;;12.90;;
22193;SDS011;11262;50.308;9.270;2022-09-30T01:03:47;21.87;;;10.77;;
22193;SDS011;11262;50.308;9.270;2022-09-30T01:06:17;18.30;;;10.07;;
22193;SDS011;11262;50.308;9.270;2022-09-30T01:08:45;16.20;;;9.10;;
22193;SDS011;11262;50.308;9.270;2022-09-30T01:11:11;14.73;;;8.70;;
22193;SDS011;11262;50.308;9.270;2022-09-30T01:13:39;19.17;;;8.97;;
22193;SDS011;11262;50.308;9.270;2022-09-30T01:18:47;21.50;;;9.40;;
22193;SDS011;11262;50.308;9.270;2022-09-30T01:35:13;17.87;;;8.97;;
22193;SDS011;11262;50.308;9.270;2022-09-30T01:37:51;19.73;;;9.93;;
22193;SDS011;11262;50.308;9.270;2022-09-30T01:40:46;15.23;;;9.33;;
22193;SDS011;11262;50.308;9.270;2022-09-30T01:45:53;20.87;;;8.83;;
22193;SDS011;11262;50.308;9.270;2022-09-30T01:51:08;14.77;;;8.30;;
22193;SDS011;11262;50.308;9.270;2022-09-30T01:53:46;17.83;;;9.43;;
22193;SDS011;11262;50.308;9.270;2022-09-30T01:56:33;16.67;;;9.53;;
22193;SDS011;11262;50.308;9.270;2022-09-30T01:59:04;19.73;;;10.07;;
22193;SDS011;11262;50.308;9.270;2022-09-30T02:04:42;20.97;;;10.37;;
22193;SDS011;11262;50.308;9.270;2022-09-30T02:07:36;18.53;;;9.80;;
22193;SDS011;11262;50.308;9.270;2022-09-30T02:10:09;18.17;;;9.90;;
22193;SDS011;11262;50.308;9.270;2022-09-30T02:12:41;17.73;;;10.17;;
22193;SDS011;11262;50.308;9.270;2022-09-30T02:15:14;18.40;;;10.00;;
22193;SDS011;11262;50.308;9.270;2022-09-30T02:17:45;18.80;;;10.37;;
22193;SDS011;11262;50.308;9.270;2022-09-30T02:20:18;18.37;;;9.67;;
22193;SDS011;11262;50.308;9.270;2022-09-30T02:22:49;18.77;;;9.50;;
22193;SDS011;11262;50.308;9.270;2022-09-30T02:25:25;17.50;;;9.30;;
22193;SDS011;11262;50.308;9.270;2022-09-30T02:27:56;19.87;;;9.83;;
22193;SDS011;11262;50.308;9.270;2022-09-30T02:30:25;15.80;;;9.23;;
22193;SDS011;11262;50.308;9.270;2022-09-30T02:32:54;19.83;;;9.73;;
22193;SDS011;11262;50.308;9.270;2022-09-30T02:37:54;15.13;;;9.17;;
22193;SDS011;11262;50.308;9.270;2022-09-30T02:40:26;17.13;;;9.17;;
22193;SDS011;11262;50.308;9.270;2022-09-30T02:42:59;17.97;;;8.97;;
22193;SDS011;11262;50.308;9.270;2022-09-30T02:45:27;15.20;;;8.63;;
22193;SDS011;11262;50.308;9.270;2022-09-30T02:48:05;22.30;;;8.63;;
22193;SDS011;11262;50.308;9.270;2022-09-30T02:50:47;15.97;;;9.20;;
22193;SDS011;11262;50.308;9.270;2022-09-30T02:53:26;18.80;;;9.77;;
22193;SDS011;11262;50.308;9.270;2022-09-30T02:56:05;17.20;;;8.70;;
22193;SDS011;11262;50.308;9.270;2022-09-30T02:58:46;16.27;;;9.53;;
22193;SDS011;11262;50.308;9.270;2022-09-30T03:01:14;16.97;;;9.07;;
22193;SDS011;11262;50.308;9.270;2022-09-30T03:03:45;19.37;;;8.73;;
22193;SDS011;11262;50.308;9.270;2022-09-30T03:06:16;17.00;;;9.00;;
22193;SDS011;11262;50.308;9.270;2022-09-30T03:08:43;15.07;;;9.10;;
22193;SDS011;11262;50.308;9.270;2022-09-30T03:11:16;20.33;;;10.07;;
22193;SDS011;11262;50.308;9.270;2022-09-30T03:22:20;18.30;;;9.47;;
22193;SDS011;11262;50.308;9.270;2022-09-30T03:28:18;20.63;;;11.07;;
22193;SDS011;11262;50.308;9.270;2022-09-30T03:41:43;20.20;;;9.50;;
22193;SDS011;11262;50.308;9.270;2022-09-30T03:44:26;19.47;;;9.97;;
22193;SDS011;11262;50.308;9.270;2022-09-30T03:47:01;19.37;;;9.67;;
22193;SDS011;11262;50.308;9.270;2022-09-30T03:49:33;20.47;;;9.43;;
22193;SDS011;11262;50.308;9.270;2022-09-30T03:52:06;17.70;;;9.50;;
22193;SDS011;11262;50.308;9.270;2022-09-30T03:54:42;17.97;;;9.57;;
22193;SDS011;11262;50.308;9.270;2022-09-30T03:57:10;18.37;;;9.27;;
22193;SDS011;11262;50.308;9.270;2022-09-30T03:59:35;17.13;;;9.30;;
22193;SDS011;11262;50.308;9.270;2022-09-30T04:02:01;16.27;;;9.50;;
22193;SDS011;11262;50.308;9.270;2022-09-30T04:04:28;14.83;;;8.80;;
22193;SDS011;11262;50.308;9.270;2022-09-30T04:06:54;20.77;;;9.83;;
22193;SDS011;11262;50.308;9.270;2022-09-30T04:09:19;20.23;;;10.00;;
22193;SDS011;11262;50.308;9.270;2022-09-30T04:11:45;17.23;;;9.17;;
22193;SDS011;11262;50.308;9.270;2022-09-30T04:14:11;19.07;;;9.10;;
22193;SDS011;11262;50.308;9.270;2022-09-30T04:16:36;17.50;;;9.20;;
22193;SDS011;11262;50.308;9.270;2022-09-30T04:19:02;20.90;;;9.67;;
22193;SDS011;11262;50.308;9.270;2022-09-30T04:21:27;17.50;;;9.87;;
22193;SDS011;11262;50.308;9.270;2022-09-30T04:23:54;17.67;;;9.47;;
22193;SDS011;11262;50.308;9.270;2022-09-30T04:26:20;18.67;;;10.07;;
22193;SDS011;11262;50.308;9.270;2022-09-30T04:28:47;16.80;;;9.60;;
22193;SDS011;11262;50.308;9.270;2022-09-30T04:31:13;17.97;;;9.70;;
22193;SDS011;11262;50.308;9.270;2022-09-30T04:33:41;20.23;;;10.17;;
22193;SDS011;11262;50.308;9.270;2022-09-30T04:36:08;22.03;;;10.27;;
22193;SDS011;11262;50.308;9.270;2022-09-30T04:38:34;19.27;;;10.03;;
22193;SDS011;11262;50.308;9.270;2022-09-30T04:41:03;17.43;;;9.47;;
22193;SDS011;11262;50.308;9.270;2022-09-30T04:43:30;16.93;;;9.37;;
22193;SDS011;11262;50.308;9.270;2022-09-30T04:45:56;16.80;;;9.50;;
22193;SDS011;11262;50.308;9.270;2022-09-30T04:48:22;19.63;;;9.83;;
22193;SDS011;11262;50.308;9.270;2022-09-30T04:50:48;25.33;;;10.13;;
22193;SDS011;11262;50.308;9.270;2022-09-30T04:53:14;20.57;;;10.63;;
22193;SDS011;11262;50.308;9.270;2022-09-30T04:55:41;17.63;;;9.63;;
22193;SDS011;11262;50.308;9.270;2022-09-30T04:58:08;22.33;;;10.50;;
22193;SDS011;11262;50.308;9.270;2022-09-30T05:00:35;18.40;;;9.33;;
22193;SDS011;11262;50.308;9.270;2022-09-30T05:03:01;19.67;;;10.43;;
22193;SDS011;11262;50.308;9.270;2022-09-30T05:05:27;19.63;;;9.17;;
22193;SDS011;11262;50.308;9.270;2022-09-30T05:07:58;20.47;;;10.40;;
22193;SDS011;11262;50.308;9.270;2022-09-30T05:10:28;16.60;;;9.33;;
22193;SDS011;11262;50.308;9.270;2022-09-30T05:12:54;18.97;;;9.53;;
22193;SDS011;11262;50.308;9.270;2022-09-30T05:15:20;17.80;;;9.17;;
22193;SDS011;11262;50.308;9.270;2022-09-30T05:17:49;19.13;;;9.60;;
22193;SDS011;11262;50.308;9.270;2022-09-30T05:20:15;19.13;;;9.57;;
22193;SDS011;11262;50.308;9.270;2022-09-30T05:22:41;18.37;;;9.47;;
22193;SDS011;11262;50.308;9.270;2022-09-30T05:25:07;39.77;;;10.27;;
22193;SDS011;11262;50.308;9.270;2022-09-30T05:27:32;55.63;;;10.70;;
22193;SDS011;11262;50.308;9.270;2022-09-30T05:29:58;33.37;;;9.20;;
22193;SDS011;11262;50.308;9.270;2022-09-30T05:32:23;16.50;;;9.13;;
22193;SDS011;11262;50.308;9.270;2022-09-30T05:34:49;19.50;;;9.70;;
22193;SDS011;11262;50.308;9.270;2022-09-30T05:37:15;18.07;;;10.23;;
22193;SDS011;11262;50.308;9.270;2022-09-30T05:39:41;20.17;;;9.40;;
22193;SDS011;11262;50.308;9.270;2022-09-30T05:42:06;15.17;;;9.20;;
22193;SDS011;11262;50.308;9.270;2022-09-30T05:44:32;20.07;;;9.70;;
22193;SDS011;11262;50.308;9.270;2022-09-30T05:46:58;15.00;;;8.47;;
22193;SDS011;11262;50.308;9.270;2022-09-30T05:49:24;14.23;;;8.17;;
22193;SDS011;11262;50.308;9.270;2022-09-30T05:51:50;15.03;;;8.90;;
22193;SDS011;11262;50.308;9.270;2022-09-30T05:54:16;19.77;;;9.73;;
22193;SDS011;11262;50.308;9.270;2022-09-30T05:56:42;17.37;;;9.90;;
22193;SDS011;11262;50.308;9.270;2022-09-30T05:59:07;18.97;;;9.80;;
22193;SDS011;11262;50.308;9.270;2022-09-30T06:01:33;19.03;;;10.50;;
22193;SDS011;11262;50.308;9.270;2022-09-30T06:03:58;18.30;;;9.93;;
22193;SDS011;11262;50.308;9.270;2022-09-30T06:06:24;22.50;;;11.17;;
22193;SDS011;11262;50.308;9.270;2022-09-30T06:08:50;25.10;;;12.53;;
22193;SDS011;11262;50.308;9.270;2022-09-30T06:11:17;29.10;;;13.70;;
22193;SDS011;11262;50.308;9.270;2022-09-30T06:13:46;25.80;;;14.07;;
22193;SDS011;11262;50.308;9.270;2022-09-30T06:16:13;26.47;;;14.13;;
22193;SDS011;11262;50.308;9.270;2022-09-30T06:18:39;24.77;;;14.37;;
22193;SDS011;11262;50.308;9.270;2022-09-30T06:21:05;28.30;;;15.47;;
22193;SDS011;11262;50.308;9.270;2022-09-30T06:23:33;29.20;;;15.00;;
22193;SDS011;11262;50.308;9.270;2022-09-30T06:25:59;30.73;;;14.17;;
22193;SDS011;11262;50.308;9.270;2022-09-30T06:28:26;29.43;;;15.77;;
22193;SDS011;11262;50.308;9.270;2022-09-30T06:30:52;33.60;;;15.80;;
22193;SDS011;11262;50.308;9.270;2022-09-30T06:33:19;31.10;;;14.87;;
22193;SDS011;11262;50.308;9.270;2022-09-30T06:35:45;30.73;;;14.43;;
22193;SDS011;11262;50.308;9.270;2022-09-30T06:38:12;26.77;;;13.47;;
22193;SDS011;11262;50.308;9.270;2022-09-30T06:40:40;28.33;;;13.23;;
22193;SDS011;11262;50.308;9.270;2022-09-30T06:43:09;23.93;;;11.80;;
22193;SDS011;11262;50.308;9.270;2022-09-30T06:45:35;24.30;;;11.77;;
22193;SDS011;11262;50.308;9.270;2022-09-30T06:48:02;30.90;;;11.87;;
22193;SDS011;11262;50.308;9.270;2022-09-30T06:50:29;21.83;;;10.87;;
22193;SDS011;11262;50.308;9.270;2022-09-30T06:52:59;20.93;;;10.17;;
22193;SDS011;11262;50.308;9.270;2022-09-30T06:55:26;25.77;;;11.23;;
22193;SDS011;11262;50.308;9.270;2022-09-30T06:57:53;20.83;;;10.30;;
22193;SDS011;11262;50.308;9.270;2022-09-30T07:00:20;19.77;;;10.10;;
22193;SDS011;11262;50.308;9.270;2022-09-30T07:02:46;20.60;;;10.30;;
22193;SDS011;11262;50.308;9.270;2022-09-30T07:05:12;18.57;;;9.50;;
22193;SDS011;11262;50.308;9.270;2022-09-30T07:07:39;18.50;;;8.97;;
22193;SDS011;11262;50.308;9.270;2022-09-30T07:10:06;17.60;;;9.10;;
22193;SDS011;11262;50.308;9.270;2022-09-30T07:12:32;17.27;;;8.90;;
22193;SDS011;11262;50.308;9.270;2022-09-30T07:14:58;20.87;;;9.93;;
22193;SDS011;11262;50.308;9.270;2022-09-30T07:17:24;19.33;;;9.50;;
22193;SDS011;11262;50.308;9.270;2022-09-30T07:19:51;17.83;;;9.07;;
22193;SDS011;11262;50.308;9.270;2022-09-30T07:22:17;19.53;;;9.40;;
22193;SDS011;11262;50.308;9.270;2022-09-30T07:24:57;19.03;;;9.67;;
22193;SDS011;11262;50.308;9.270;2022-09-30T07:27:27;18.47;;;8.80;;
22193;SDS011;11262;50.308;9.270;2022-09-30T07:29:56;21.33;;;9.77;;
22193;SDS011;11262;50.308;9.270;2022-09-30T07:32:23;18.93;;;9.10;;
22193;SDS011;11262;50.308;9.270;2022-09-30T07:34:49;18.77;;;8.77;;
22193;SDS011;11262;50.308;9.270;2022-09-30T07:37:15;17.40;;;8.83;;
22193;SDS011;11262;50.308;9.270;2022-09-30T07:39:43;16.17;;;8.77;;
22193;SDS011;11262;50.308;9.270;2022-09-30T07:42:11;20.53;;;9.33;;
22193;SDS011;11262;50.308;9.270;2022-09-30T07:44:38;14.03;;;7.77;;
22193;SDS011;11262;50.308;9.270;2022-09-30T07:47:07;16.83;;;8.10;;
22193;SDS011;11262;50.308;9.270;2022-09-30T07:49:34;17.53;;;7.83;;
22193;SDS011;11262;50.308;9.270;2022-09-30T07:52:00;15.17;;;7.83;;
22193;SDS011;11262;50.308;9.270;2022-09-30T07:54:27;14.20;;;6.87;;
22193;SDS011;11262;50.308;9.270;2022-09-30T07:56:55;12.57;;;7.37;;
22193;SDS011;11262;50.308;9.270;2022-09-30T07:59:22;16.73;;;7.50;;
22193;SDS011;11262;50.308;9.270;2022-09-30T08:01:48;19.63;;;8.50;;
22193;SDS011;11262;50.308;9.270;2022-09-30T08:04:15;14.97;;;7.97;;
22193;SDS011;11262;50.308;9.270;2022-09-30T08:06:43;12.40;;;7.50;;
22193;SDS011;11262;50.308;9.270;2022-09-30T08:09:11;15.40;;;7.70;;
22193;SDS011;11262;50.308;9.270;2022-09-30T08:11:39;15.20;;;7.47;;
22193;SDS011;11262;50.308;9.270;2022-09-30T08:14:06;16.07;;;6.83;;
22193;SDS011;11262;50.308;9.270;2022-09-30T08:16:36;15.47;;;7.37;;
22193;SDS011;11262;50.308;9.270;2022-09-30T08:19:02;15.70;;;8.40;;
22193;SDS011;11262;50.308;9.270;2022-09-30T08:21:28;13.57;;;7.63;;
22193;SDS011;11262;50.308;9.270;2022-09-30T08:23:53;14.80;;;7.50;;
22193;SDS011;11262;50.308;9.270;2022-09-30T08:26:19;11.37;;;7.17;;
22193;SDS011;11262;50.308;9.270;2022-09-30T08:28:45;12.43;;;6.63;;
22193;SDS011;11262;50.308;9.270;2022-09-30T08:31:13;13.07;;;6.70;;
22193;SDS011;11262;50.308;9.270;2022-09-30T08:33:40;13.03;;;6.70;;
22193;SDS011;11262;50.308;9.270;2022-09-30T08:36:07;13.93;;;6.50;;
22193;SDS011;11262;50.308;9.270;2022-09-30T08:38:35;9.90;;;6.60;;
22193;SDS011;11262;50.308;9.270;2022-09-30T08:41:08;10.43;;;6.53;;
22193;SDS011;11262;50.308;9.270;2022-09-30T08:46:26;12.77;;;6.73;;
22193;SDS011;11262;50.308;9.270;2022-09-30T08:51:58;16.37;;;6.70;;
22193;SDS011;11262;50.308;9.270;2022-09-30T08:54:28;12.83;;;6.40;;
22193;SDS011;11262;50.308;9.270;2022-09-30T08:56:57;12.33;;;6.27;;
22193;SDS011;11262;50.308;9.270;2022-09-30T09:02:17;9.30;;;5.80;;
22193;SDS011;11262;50.308;9.270;2022-09-30T09:04:58;10.97;;;6.50;;
22193;SDS011;11262;50.308;9.270;2022-09-30T09:07:36;12.73;;;5.97;;
22193;SDS011;11262;50.308;9.270;2022-09-30T09:10:27;8.93;;;5.87;;
22193;SDS011;11262;50.308;9.270;2022-09-30T09:21:58;9.67;;;6.13;;
22193;SDS011;11262;50.308;9.270;2022-09-30T09:24:15;13.90;;;6.00;;
22193;SDS011;11262;50.308;9.270;2022-09-30T09:26:44;14.67;;;5.77;;
22193;SDS011;11262;50.308;9.270;2022-09-30T09:31:58;9.77;;;5.43;;
22193;SDS011;11262;50.308;9.270;2022-09-30T09:34:27;7.67;;;5.37;;
22193;SDS011;11262;50.308;9.270;2022-09-30T09:37:01;9.43;;;5.97;;
22193;SDS011;11262;50.308;9.270;2022-09-30T09:42:53;15.73;;;5.53;;
22193;SDS011;11262;50.308;9.270;2022-09-30T09:45:32;7.43;;;5.30;;
22193;SDS011;11262;50.308;9.270;2022-09-30T09:48:07;13.53;;;5.10;;
22193;SDS011;11262;50.308;9.270;2022-09-30T09:50:48;7.90;;;5.00;;
22193;SDS011;11262;50.308;9.270;2022-09-30T09:56:16;10.03;;;5.13;;
22193;SDS011;11262;50.308;9.270;2022-09-30T10:01:34;8.27;;;4.80;;
22193;SDS011;11262;50.308;9.270;2022-09-30T10:06:42;9.93;;;4.83;;
22193;SDS011;11262;50.308;9.270;2022-09-30T10:12:36;9.90;;;4.40;;
22193;SDS011;11262;50.308;9.270;2022-09-30T10:14:38;12.77;;;5.33;;
22193;SDS011;11262;50.308;9.270;2022-09-30T10:17:20;11.50;;;4.97;;
22193;SDS011;11262;50.308;9.270;2022-09-30T10:20:29;11.60;;;4.77;;
22193;SDS011;11262;50.308;9.270;2022-09-30T10:26:05;12.30;;;5.30;;
22193;SDS011;11262;50.308;9.270;2022-09-30T10:28:58;7.67;;;4.80;;
22193;SDS011;11262;50.308;9.270;2022-09-30T10:36:28;9.47;;;5.67;;
22193;SDS011;11262;50.308;9.270;2022-09-30T10:39:05;9.37;;;5.07;;
22193;SDS011;11262;50.308;9.270;2022-09-30T10:41:45;13.27;;;4.93;;
22193;SDS011;11262;50.308;9.270;2022-09-30T10:44:18;10.87;;;4.93;;
22193;SDS011;11262;50.308;9.270;2022-09-30T10:46:48;11.27;;;5.00;;
22193;SDS011;11262;50.308;9.270;2022-09-30T10:49:27;11.93;;;5.40;;
22193;SDS011;11262;50.308;9.270;2022-09-30T10:51:57;9.40;;;4.83;;
22193;SDS011;11262;50.308;9.270;2022-09-30T10:54:45;6.93;;;5.03;;
22193;SDS011;11262;50.308;9.270;2022-09-30T10:57:19;8.63;;;5.00;;
22193;SDS011;11262;50.308;9.270;2022-09-30T10:59:48;7.57;;;4.17;;
22193;SDS011;11262;50.308;9.270;2022-09-30T11:05:10;11.03;;;4.53;;
22193;SDS011;11262;50.308;9.270;2022-09-30T11:08:08;10.07;;;4.60;;
22193;SDS011;11262;50.308;9.270;2022-09-30T11:11:02;10.40;;;5.03;;
22193;SDS011;11262;50.308;9.270;2022-09-30T11:13:54;11.67;;;4.87;;
22193;SDS011;11262;50.308;9.270;2022-09-30T11:16:36;7.47;;;4.97;;
22193;SDS011;11262;50.308;9.270;2022-09-30T11:24:52;12.03;;;4.63;;
22193;SDS011;11262;50.308;9.270;2022-09-30T11:43:35;6.07;;;3.40;;
22193;SDS011;11262;50.308;9.270;2022-09-30T11:54:17;5.20;;;3.23;;
22193;SDS011;11262;50.308;9.270;2022-09-30T11:59:34;5.57;;;3.07;;
22193;SDS011;11262;50.308;9.270;2022-09-30T12:07:48;7.37;;;3.00;;
22193;SDS011;11262;50.308;9.270;2022-09-30T12:10:24;3.70;;;2.90;;
22193;SDS011;11262;50.308;9.270;2022-09-30T12:12:58;10.07;;;3.80;;
22193;SDS011;11262;50.308;9.270;2022-09-30T12:15:38;7.10;;;3.07;;
22193;SDS011;11262;50.308;9.270;2022-09-30T12:18:09;3.83;;;3.00;;
22193;SDS011;11262;50.308;9.270;2022-09-30T12:26:00;5.97;;;2.90;;
22193;SDS011;11262;50.308;9.270;2022-09-30T12:28:33;4.30;;;3.30;;
22193;SDS011;11262;50.308;9.270;2022-09-30T12:48:19;5.53;;;3.50;;
22193;SDS011;11262;50.308;9.270;2022-09-30T12:50:47;4.80;;;3.10;;
22193;SDS011;11262;50.308;9.270;2022-09-30T12:53:21;8.37;;;3.27;;
22193;SDS011;11262;50.308;9.270;2022-09-30T12:55:54;5.57;;;3.30;;
22193;SDS011;11262;50.308;9.270;2022-09-30T12:58:29;5.50;;;3.17;;
22193;SDS011;11262;50.308;9.270;2022-09-30T13:00:59;7.77;;;3.77;;
22193;SDS011;11262;50.308;9.270;2022-09-30T13:03:44;5.07;;;3.10;;
22193;SDS011;11262;50.308;9.270;2022-09-30T13:06:15;4.93;;;3.17;;
22193;SDS011;11262;50.308;9.270;2022-09-30T13:08:47;5.00;;;3.33;;
22193;SDS011;11262;50.308;9.270;2022-09-30T13:11:43;11.10;;;3.23;;
22193;SDS011;11262;50.308;9.270;2022-09-30T13:19:43;11.07;;;4.07;;
22193;SDS011;11262;50.308;9.270;2022-09-30T13:27:33;7.03;;;3.37;;
22193;SDS011;11262;50.308;9.270;2022-09-30T13:30:09;13.23;;;4.50;;
22193;SDS011;11262;50.308;9.270;2022-09-30T13:43:06;5.37;;;3.27;;
22193;SDS011;11262;50.308;9.270;2022-09-30T13:45:54;5.20;;;3.10;;
22193;SDS011;11262;50.308;9.270;2022-09-30T13:48:34;4.93;;;3.27;;
22193;SDS011;11262;50.308;9.270;2022-09-30T13:51:05;5.47;;;3.00;;
22193;SDS011;11262;50.308;9.270;2022-09-30T13:53:40;8.83;;;3.37;;
22193;SDS011;11262;50.308;9.270;2022-09-30T13:56:19;8.30;;;3.03;;
22193;SDS011;11262;50.308;9.270;2022-09-30T14:10:02;8.07;;;3.40;;
22193;SDS011;11262;50.308;9.270;2022-09-30T14:16:05;24.23;;;12.73;;
22193;SDS011;11262;50.308;9.270;2022-09-30T14:23:45;7.30;;;3.83;;
22193;SDS011;11262;50.308;9.270;2022-09-30T14:29:03;5.40;;;3.10;;
22193;SDS011;11262;50.308;9.270;2022-09-30T14:31:41;5.87;;;3.13;;
22193;SDS011;11262;50.308;9.270;2022-09-30T14:34:13;6.83;;;3.30;;
22193;SDS011;11262;50.308;9.270;2022-09-30T14:36:42;3.70;;;2.90;;
22193;SDS011;11262;50.308;9.270;2022-09-30T14:39:27;7.77;;;2.90;;
22193;SDS011;11262;50.308;9.270;2022-09-30T14:41:57;4.60;;;2.80;;
22193;SDS011;11262;50.308;9.270;2022-09-30T14:44:26;6.77;;;2.80;;
22193;SDS011;11262;50.308;9.270;2022-09-30T14:46:57;3.37;;;2.50;;
22193;SDS011;11262;50.308;9.270;2022-09-30T14:49:26;3.70;;;2.50;;
22193;SDS011;11262;50.308;9.270;2022-09-30T14:51:58;6.63;;;2.80;;
22193;SDS011;11262;50.308;9.270;2022-09-30T14:54:27;5.77;;;2.67;;
22193;SDS011;11262;50.308;9.270;2022-09-30T14:56:55;7.67;;;2.70;;
22193;SDS011;11262;50.308;9.270;2022-09-30T14:59:23;5.07;;;2.60;;
22193;SDS011;11262;50.308;9.270;2022-09-30T15:01:51;6.60;;;2.67;;
22193;SDS011;11262;50.308;9.270;2022-09-30T15:04:25;5.60;;;2.73;;
22193;SDS011;11262;50.308;9.270;2022-09-30T15:06:57;6.30;;;2.73;;
22193;SDS011;11262;50.308;9.270;2022-09-30T15:09:31;7.33;;;2.93;;
22193;SDS011;11262;50.308;9.270;2022-09-30T15:12:10;5.50;;;2.60;;
22193;SDS011;11262;50.308;9.270;2022-09-30T15:17:18;4.53;;;2.80;;
22193;SDS011;11262;50.308;9.270;2022-09-30T15:19:49;12.37;;;3.03;;
22193;SDS011;11262;50.308;9.270;2022-09-30T15:22:15;6.10;;;2.80;;
22193;SDS011;11262;50.308;9.270;2022-09-30T15:24:42;5.97;;;2.80;;
22193;SDS011;11262;50.308;9.270;2022-09-30T15:27:31;4.27;;;2.60;;
22193;SDS011;11262;50.308;9.270;2022-09-30T15:29:57;6.60;;;2.60;;
22193;SDS011;11262;50.308;9.270;2022-09-30T15:32:25;3.63;;;2.53;;
22193;SDS011;11262;50.308;9.270;2022-09-30T15:34:54;3.57;;;2.63;;
22193;SDS011;11262;50.308;9.270;2022-09-30T15:37:23;4.83;;;2.80;;
22193;SDS011;11262;50.308;9.270;2022-09-30T15:39:53;7.23;;;2.70;;
22193;SDS011;11262;50.308;9.270;2022-09-30T15:42:39;7.17;;;2.60;;
22193;SDS011;11262;50.308;9.270;2022-09-30T15:45:51;6.90;;;2.47;;
22193;SDS011;11262;50.308;9.270;2022-09-30T15:48:06;3.47;;;2.30;;
22193;SDS011;11262;50.308;9.270;2022-09-30T15:50:54;4.53;;;2.70;;
22193;SDS011;11262;50.308;9.270;2022-09-30T15:53:27;5.77;;;2.53;;
22193;SDS011;11262;50.308;9.270;2022-09-30T15:56:44;6.73;;;2.37;;
22193;SDS011;11262;50.308;9.270;2022-09-30T15:59:03;7.53;;;2.90;;
22193;SDS011;11262;50.308;9.270;2022-09-30T16:09:05;4.87;;;2.93;;
22193;SDS011;11262;50.308;9.270;2022-09-30T16:11:41;6.47;;;3.03;;
22193;SDS011;11262;50.308;9.270;2022-09-30T16:14:16;5.47;;;2.80;;
22193;SDS011;11262;50.308;9.270;2022-09-30T16:16:52;8.13;;;3.20;;
22193;SDS011;11262;50.308;9.270;2022-09-30T16:19:20;7.07;;;3.30;;
22193;SDS011;11262;50.308;9.270;2022-09-30T16:21:48;7.43;;;3.27;;
22193;SDS011;11262;50.308;9.270;2022-09-30T16:24:39;7.47;;;3.63;;
22193;SDS011;11262;50.308;9.270;2022-09-30T16:27:17;9.13;;;3.20;;
22193;SDS011;11262;50.308;9.270;2022-09-30T16:29:46;4.93;;;3.43;;
22193;SDS011;11262;50.308;9.270;2022-09-30T16:32:11;7.50;;;3.30;;
22193;SDS011;11262;50.308;9.270;2022-09-30T16:34:38;7.80;;;3.80;;
22193;SDS011;11262;50.308;9.270;2022-09-30T16:37:13;12.93;;;5.10;;
22193;SDS011;11262;50.308;9.270;2022-09-30T16:39:42;10.10;;;4.40;;
22193;SDS011;11262;50.308;9.270;2022-09-30T16:42:11;8.33;;;3.73;;
22193;SDS011;11262;50.308;9.270;2022-09-30T16:44:38;7.53;;;3.93;;
22193;SDS011;11262;50.308;9.270;2022-09-30T16:47:06;8.13;;;3.60;;
22193;SDS011;11262;50.308;9.270;2022-09-30T16:49:36;10.90;;;3.47;;
22193;SDS011;11262;50.308;9.270;2022-09-30T16:52:02;6.70;;;3.90;;
22193;SDS011;11262;50.308;9.270;2022-09-30T16:54:30;8.40;;;3.93;;
22193;SDS011;11262;50.308;9.270;2022-09-30T16:56:55;9.07;;;4.53;;
22193;SDS011;11262;50.308;9.270;2022-09-30T16:59:21;15.20;;;4.97;;
22193;SDS011;11262;50.308;9.270;2022-09-30T17:01:48;10.10;;;5.30;;
22193;SDS011;11262;50.308;9.270;2022-09-30T17:04:13;13.33;;;5.77;;
22193;SDS011;11262;50.308;9.270;2022-09-30T17:06:39;12.43;;;5.67;;
22193;SDS011;11262;50.308;9.270;2022-09-30T17:09:04;7.43;;;4.60;;
22193;SDS011;11262;50.308;9.270;2022-09-30T17:11:31;14.80;;;6.17;;
22193;SDS011;11262;50.308;9.270;2022-09-30T17:13:58;15.10;;;6.20;;
22193;SDS011;11262;50.308;9.270;2022-09-30T17:16:25;10.03;;;5.17;;
22193;SDS011;11262;50.308;9.270;2022-09-30T17:18:51;12.87;;;5.83;;
22193;SDS011;11262;50.308;9.270;2022-09-30T17:21:21;22.67;;;8.70;;
22193;SDS011;11262;50.308;9.270;2022-09-30T17:23:48;40.10;;;21.37;;
22193;SDS011;11262;50.308;9.270;2022-09-30T17:26:14;23.73;;;10.80;;
22193;SDS011;11262;50.308;9.270;2022-09-30T17:28:40;22.03;;;8.80;;
22193;SDS011;11262;50.308;9.270;2022-09-30T17:31:07;14.13;;;5.63;;
22193;SDS011;11262;50.308;9.270;2022-09-30T17:33:34;13.33;;;6.20;;
22193;SDS011;11262;50.308;9.270;2022-09-30T17:36:04;18.63;;;7.97;;
22193;SDS011;11262;50.308;9.270;2022-09-30T17:38:32;11.03;;;5.93;;
22193;SDS011;11262;50.308;9.270;2022-09-30T17:40:58;12.57;;;5.90;;
22193;SDS011;11262;50.308;9.270;2022-09-30T17:43:43;10.27;;;5.00;;
22193;SDS011;11262;50.308;9.270;2022-09-30T17:46:10;8.80;;;5.30;;
22193;SDS011;11262;50.308;9.270;2022-09-30T17:48:46;13.57;;;6.03;;
22193;SDS011;11262;50.308;9.270;2022-09-30T17:51:12;14.50;;;6.50;;
22193;SDS011;11262;50.308;9.270;2022-09-30T17:53:40;27.20;;;11.80;;
22193;SDS011;11262;50.308;9.270;2022-09-30T17:56:06;20.67;;;9.83;;
22193;SDS011;11262;50.308;9.270;2022-09-30T17:58:40;16.10;;;6.80;;
22193;SDS011;11262;50.308;9.270;2022-09-30T18:01:07;13.20;;;6.50;;
22193;SDS011;11262;50.308;9.270;2022-09-30T18:03:34;31.60;;;15.23;;
22193;SDS011;11262;50.308;9.270;2022-09-30T18:05:59;28.03;;;12.77;;
22193;SDS011;11262;50.308;9.270;2022-09-30T18:08:25;19.20;;;8.70;;
22193;SDS011;11262;50.308;9.270;2022-09-30T18:10:52;16.30;;;7.77;;
22193;SDS011;11262;50.308;9.270;2022-09-30T18:13:18;13.87;;;6.40;;
22193;SDS011;11262;50.308;9.270;2022-09-30T18:15:47;13.10;;;6.60;;
22193;SDS011;11262;50.308;9.270;2022-09-30T18:18:12;9.77;;;5.53;;
22193;SDS011;11262;50.308;9.270;2022-09-30T18:20:45;9.30;;;5.40;;
22193;SDS011;11262;50.308;9.270;2022-09-30T18:23:12;9.00;;;5.00;;
22193;SDS011;11262;50.308;9.270;2022-09-30T18:25:39;10.07;;;5.47;;
22193;SDS011;11262;50.308;9.270;2022-09-30T18:28:08;8.63;;;4.87;;